sensor_id;sensor_type;location;lat;lon;timestamp;P1;durP1;ratioP1;P2;durP2;ratioP2
36923;SDS011;22841;50.252;18.688;2024-03-06T00:02:11;119.97;;;61.53;;
36923;SDS011;22841;50.252;18.688;2024-03-06T00:04:37;117.10;;;59.08;;
36923;SDS011;22841;50.252;18.688;2024-03-06T00:07:04;118.65;;;56.25;;
36923;SDS011;22841;50.252;18.688;2024-03-06T00:09:30;125.93;;;58.63;;
36923;SDS011;22841;50.252;18.688;2024-03-06T00:11:57;117.05;;;58.55;;
36923;SDS011;22841;50.252;18.688;2024-03-06T00:14:23;115.05;;;57.47;;
36923;SDS011;22841;50.252;18.688;2024-03-06T00:16:50;121.13;;;58.88;;
36923;SDS011;22841;50.252;18.688;2024-03-06T00:19:16;123.03;;;58.17;;
36923;SDS011;22841;50.252;18.688;2024-03-06T00:21:43;128.98;;;59.25;;
36923;SDS011;22841;50.252;18.688;2024-03-06T00:24:11;119.15;;;57.63;;
36923;SDS011;22841;50.252;18.688;2024-03-06T00:26:42;126.13;;;57.78;;
36923;SDS011;22841;50.252;18.688;2024-03-06T00:29:10;119.33;;;57.33;;
36923;SDS011;22841;50.252;18.688;2024-03-06T00:31:36;114.03;;;54.67;;
36923;SDS011;22841;50.252;18.688;2024-03-06T00:34:07;112.60;;;56.88;;
36923;SDS011;22841;50.252;18.688;2024-03-06T00:36:34;116.10;;;53.97;;
36923;SDS011;22841;50.252;18.688;2024-03-06T00:39:00;114.22;;;53.58;;
36923;SDS011;22841;50.252;18.688;2024-03-06T00:41:30;115.90;;;54.13;;
36923;SDS011;22841;50.252;18.688;2024-03-06T00:43:57;117.45;;;54.13;;
36923;SDS011;22841;50.252;18.688;2024-03-06T00:46:23;104.05;;;52.03;;
36923;SDS011;22841;50.252;18.688;2024-03-06T00:48:49;114.03;;;54.50;;
36923;SDS011;22841;50.252;18.688;2024-03-06T00:51:15;111.13;;;54.63;;
36923;SDS011;22841;50.252;18.688;2024-03-06T00:53:41;104.18;;;52.15;;
36923;SDS011;22841;50.252;18.688;2024-03-06T00:56:07;106.75;;;52.13;;
36923;SDS011;22841;50.252;18.688;2024-03-06T00:58:34;108.30;;;54.28;;
36923;SDS011;22841;50.252;18.688;2024-03-06T01:06:08;112.88;;;50.58;;
36923;SDS011;22841;50.252;18.688;2024-03-06T01:08:34;117.80;;;50.50;;
36923;SDS011;22841;50.252;18.688;2024-03-06T01:11:01;116.10;;;55.38;;
36923;SDS011;22841;50.252;18.688;2024-03-06T01:13:28;115.25;;;52.53;;
36923;SDS011;22841;50.252;18.688;2024-03-06T01:15:54;125.03;;;53.25;;
36923;SDS011;22841;50.252;18.688;2024-03-06T01:18:20;119.80;;;55.13;;
36923;SDS011;22841;50.252;18.688;2024-03-06T01:20:47;131.98;;;55.80;;
36923;SDS011;22841;50.252;18.688;2024-03-06T01:23:13;123.13;;;54.92;;
36923;SDS011;22841;50.252;18.688;2024-03-06T01:25:39;124.00;;;57.10;;
36923;SDS011;22841;50.252;18.688;2024-03-06T01:30:41;122.88;;;52.65;;
36923;SDS011;22841;50.252;18.688;2024-03-06T01:33:07;128.73;;;54.13;;
36923;SDS011;22841;50.252;18.688;2024-03-06T01:35:33;116.57;;;52.55;;
36923;SDS011;22841;50.252;18.688;2024-03-06T01:38:00;123.30;;;54.15;;
36923;SDS011;22841;50.252;18.688;2024-03-06T01:40:27;120.60;;;49.40;;
36923;SDS011;22841;50.252;18.688;2024-03-06T01:53:18;113.85;;;51.03;;
36923;SDS011;22841;50.252;18.688;2024-03-06T01:55:44;111.05;;;51.20;;
36923;SDS011;22841;50.252;18.688;2024-03-06T01:58:11;109.20;;;49.42;;
36923;SDS011;22841;50.252;18.688;2024-03-06T02:00:37;105.18;;;48.42;;
36923;SDS011;22841;50.252;18.688;2024-03-06T02:03:04;108.85;;;51.45;;
36923;SDS011;22841;50.252;18.688;2024-03-06T02:05:30;107.43;;;47.20;;
36923;SDS011;22841;50.252;18.688;2024-03-06T02:07:58;106.07;;;48.40;;
36923;SDS011;22841;50.252;18.688;2024-03-06T02:10:28;97.50;;;46.15;;
36923;SDS011;22841;50.252;18.688;2024-03-06T02:12:54;92.70;;;44.63;;
36923;SDS011;22841;50.252;18.688;2024-03-06T02:15:20;93.25;;;43.67;;
36923;SDS011;22841;50.252;18.688;2024-03-06T02:20:23;89.15;;;43.83;;
36923;SDS011;22841;50.252;18.688;2024-03-06T02:22:50;90.03;;;42.08;;
36923;SDS011;22841;50.252;18.688;2024-03-06T02:25:17;95.63;;;44.22;;
36923;SDS011;22841;50.252;18.688;2024-03-06T02:27:44;87.97;;;40.95;;
36923;SDS011;22841;50.252;18.688;2024-03-06T02:30:11;90.65;;;42.35;;
36923;SDS011;22841;50.252;18.688;2024-03-06T02:32:37;89.35;;;43.63;;
36923;SDS011;22841;50.252;18.688;2024-03-06T03:19:14;124.50;;;53.70;;
36923;SDS011;22841;50.252;18.688;2024-03-06T07:34:57;161.35;;;56.05;;
36923;SDS011;22841;50.252;18.688;2024-03-06T07:37:24;165.90;;;57.30;;
36923;SDS011;22841;50.252;18.688;2024-03-06T07:39:50;150.02;;;54.33;;
36923;SDS011;22841;50.252;18.688;2024-03-06T07:42:16;148.55;;;51.40;;
36923;SDS011;22841;50.252;18.688;2024-03-06T07:44:43;129.48;;;48.97;;
36923;SDS011;22841;50.252;18.688;2024-03-06T07:49:45;117.65;;;44.55;;
36923;SDS011;22841;50.252;18.688;2024-03-06T07:52:12;121.63;;;45.92;;
36923;SDS011;22841;50.252;18.688;2024-03-06T08:05:03;98.05;;;42.75;;
36923;SDS011;22841;50.252;18.688;2024-03-06T08:10:14;96.03;;;42.38;;
36923;SDS011;22841;50.252;18.688;2024-03-06T08:12:43;106.85;;;43.40;;
36923;SDS011;22841;50.252;18.688;2024-03-06T08:15:10;102.15;;;44.45;;
36923;SDS011;22841;50.252;18.688;2024-03-06T08:17:38;107.70;;;44.55;;
36923;SDS011;22841;50.252;18.688;2024-03-06T08:20:07;104.15;;;41.55;;
36923;SDS011;22841;50.252;18.688;2024-03-06T08:22:34;94.00;;;41.30;;
36923;SDS011;22841;50.252;18.688;2024-03-06T08:27:41;110.07;;;49.38;;
36923;SDS011;22841;50.252;18.688;2024-03-06T08:30:08;112.20;;;46.53;;
36923;SDS011;22841;50.252;18.688;2024-03-06T08:32:35;103.03;;;43.67;;
36923;SDS011;22841;50.252;18.688;2024-03-06T08:37:59;89.47;;;41.40;;
36923;SDS011;22841;50.252;18.688;2024-03-06T08:40:26;99.38;;;42.30;;
36923;SDS011;22841;50.252;18.688;2024-03-06T08:42:52;91.75;;;42.90;;
36923;SDS011;22841;50.252;18.688;2024-03-06T08:45:18;76.97;;;36.40;;
36923;SDS011;22841;50.252;18.688;2024-03-06T08:47:50;88.03;;;40.10;;
36923;SDS011;22841;50.252;18.688;2024-03-06T08:50:17;78.05;;;37.90;;
36923;SDS011;22841;50.252;18.688;2024-03-06T08:52:44;68.32;;;35.47;;
36923;SDS011;22841;50.252;18.688;2024-03-06T08:55:11;88.30;;;38.38;;
36923;SDS011;22841;50.252;18.688;2024-03-06T08:57:38;77.78;;;35.85;;
36923;SDS011;22841;50.252;18.688;2024-03-06T09:00:05;81.90;;;37.53;;
36923;SDS011;22841;50.252;18.688;2024-03-06T09:02:38;81.50;;;40.88;;
36923;SDS011;22841;50.252;18.688;2024-03-06T09:05:05;72.82;;;32.88;;
36923;SDS011;22841;50.252;18.688;2024-03-06T09:07:32;62.80;;;30.30;;
36923;SDS011;22841;50.252;18.688;2024-03-06T09:10:03;66.20;;;32.03;;
36923;SDS011;22841;50.252;18.688;2024-03-06T09:12:31;68.55;;;33.17;;
36923;SDS011;22841;50.252;18.688;2024-03-06T09:14:57;63.88;;;32.25;;
36923;SDS011;22841;50.252;18.688;2024-03-06T09:17:26;71.18;;;33.75;;
36923;SDS011;22841;50.252;18.688;2024-03-06T09:19:52;67.50;;;32.85;;
36923;SDS011;22841;50.252;18.688;2024-03-06T09:22:19;55.75;;;27.35;;
36923;SDS011;22841;50.252;18.688;2024-03-06T09:25:10;68.22;;;31.92;;
36923;SDS011;22841;50.252;18.688;2024-03-06T09:27:39;52.92;;;26.25;;
36923;SDS011;22841;50.252;18.688;2024-03-06T09:30:05;68.03;;;31.70;;
36923;SDS011;22841;50.252;18.688;2024-03-06T09:32:31;61.75;;;29.10;;
36923;SDS011;22841;50.252;18.688;2024-03-06T09:34:58;59.38;;;28.30;;
36923;SDS011;22841;50.252;18.688;2024-03-06T09:37:24;54.80;;;25.25;;
36923;SDS011;22841;50.252;18.688;2024-03-06T09:39:50;47.65;;;23.25;;
36923;SDS011;22841;50.252;18.688;2024-03-06T09:42:17;44.08;;;20.95;;
36923;SDS011;22841;50.252;18.688;2024-03-06T09:44:43;47.15;;;22.80;;
36923;SDS011;22841;50.252;18.688;2024-03-06T09:47:12;37.60;;;19.98;;
36923;SDS011;22841;50.252;18.688;2024-03-06T09:49:42;37.85;;;21.75;;
36923;SDS011;22841;50.252;18.688;2024-03-06T09:52:09;40.83;;;22.02;;
36923;SDS011;22841;50.252;18.688;2024-03-06T09:54:36;42.00;;;21.35;;
36923;SDS011;22841;50.252;18.688;2024-03-06T09:57:04;38.85;;;21.40;;
36923;SDS011;22841;50.252;18.688;2024-03-06T09:59:31;34.13;;;20.42;;
36923;SDS011;22841;50.252;18.688;2024-03-06T10:01:57;56.40;;;23.00;;
36923;SDS011;22841;50.252;18.688;2024-03-06T10:04:24;43.75;;;19.15;;
36923;SDS011;22841;50.252;18.688;2024-03-06T10:06:58;35.28;;;19.38;;
36923;SDS011;22841;50.252;18.688;2024-03-06T10:09:25;32.10;;;18.77;;
36923;SDS011;22841;50.252;18.688;2024-03-06T10:11:53;28.90;;;16.02;;
36923;SDS011;22841;50.252;18.688;2024-03-06T10:14:21;30.30;;;17.17;;
36923;SDS011;22841;50.252;18.688;2024-03-06T10:19:19;32.83;;;18.13;;
36923;SDS011;22841;50.252;18.688;2024-03-06T10:21:49;25.30;;;15.38;;
36923;SDS011;22841;50.252;18.688;2024-03-06T10:24:20;28.67;;;16.90;;
36923;SDS011;22841;50.252;18.688;2024-03-06T10:26:48;29.23;;;16.55;;
36923;SDS011;22841;50.252;18.688;2024-03-06T10:29:16;32.33;;;15.77;;
36923;SDS011;22841;50.252;18.688;2024-03-06T10:31:53;23.40;;;14.77;;
36923;SDS011;22841;50.252;18.688;2024-03-06T10:34:21;23.45;;;12.98;;
36923;SDS011;22841;50.252;18.688;2024-03-06T10:36:55;22.95;;;13.20;;
36923;SDS011;22841;50.252;18.688;2024-03-06T10:39:25;29.40;;;14.50;;
36923;SDS011;22841;50.252;18.688;2024-03-06T10:41:52;31.83;;;14.65;;
36923;SDS011;22841;50.252;18.688;2024-03-06T10:44:23;26.17;;;15.68;;
36923;SDS011;22841;50.252;18.688;2024-03-06T10:47:01;39.25;;;15.82;;
36923;SDS011;22841;50.252;18.688;2024-03-06T10:49:28;29.23;;;15.80;;
36923;SDS011;22841;50.252;18.688;2024-03-06T10:52:03;29.60;;;16.30;;
36923;SDS011;22841;50.252;18.688;2024-03-06T10:54:34;30.15;;;16.85;;
36923;SDS011;22841;50.252;18.688;2024-03-06T10:57:02;27.98;;;15.65;;
36923;SDS011;22841;50.252;18.688;2024-03-06T10:59:28;26.60;;;15.30;;
36923;SDS011;22841;50.252;18.688;2024-03-06T11:01:55;28.27;;;15.57;;
36923;SDS011;22841;50.252;18.688;2024-03-06T11:04:25;26.50;;;15.35;;
36923;SDS011;22841;50.252;18.688;2024-03-06T11:06:56;28.23;;;15.82;;
36923;SDS011;22841;50.252;18.688;2024-03-06T11:09:25;30.83;;;16.80;;
36923;SDS011;22841;50.252;18.688;2024-03-06T11:11:53;32.22;;;14.73;;
36923;SDS011;22841;50.252;18.688;2024-03-06T11:14:23;32.08;;;17.80;;
36923;SDS011;22841;50.252;18.688;2024-03-06T11:17:00;33.10;;;16.35;;
36923;SDS011;22841;50.252;18.688;2024-03-06T11:19:28;34.55;;;18.65;;
36923;SDS011;22841;50.252;18.688;2024-03-06T11:21:57;35.05;;;18.85;;
36923;SDS011;22841;50.252;18.688;2024-03-06T11:24:34;36.08;;;19.50;;
36923;SDS011;22841;50.252;18.688;2024-03-06T11:27:00;37.38;;;17.70;;
36923;SDS011;22841;50.252;18.688;2024-03-06T11:29:28;34.15;;;18.38;;
36923;SDS011;22841;50.252;18.688;2024-03-06T11:32:15;36.38;;;20.13;;
36923;SDS011;22841;50.252;18.688;2024-03-06T11:34:42;36.75;;;18.70;;
36923;SDS011;22841;50.252;18.688;2024-03-06T11:37:08;39.83;;;20.67;;
36923;SDS011;22841;50.252;18.688;2024-03-06T11:39:35;56.65;;;28.65;;
36923;SDS011;22841;50.252;18.688;2024-03-06T11:42:02;50.08;;;25.17;;
36923;SDS011;22841;50.252;18.688;2024-03-06T11:44:31;39.28;;;21.48;;
36923;SDS011;22841;50.252;18.688;2024-03-06T11:46:59;51.65;;;24.67;;
36923;SDS011;22841;50.252;18.688;2024-03-06T11:49:29;88.70;;;39.42;;
36923;SDS011;22841;50.252;18.688;2024-03-06T11:52:08;73.88;;;31.17;;
36923;SDS011;22841;50.252;18.688;2024-03-06T11:54:35;53.17;;;26.42;;
36923;SDS011;22841;50.252;18.688;2024-03-06T11:57:02;60.25;;;27.20;;
36923;SDS011;22841;50.252;18.688;2024-03-06T11:59:36;38.30;;;21.35;;
36923;SDS011;22841;50.252;18.688;2024-03-06T12:02:06;77.80;;;33.47;;
36923;SDS011;22841;50.252;18.688;2024-03-06T12:04:33;105.95;;;40.25;;
36923;SDS011;22841;50.252;18.688;2024-03-06T12:07:02;97.07;;;34.72;;
36923;SDS011;22841;50.252;18.688;2024-03-06T12:09:32;94.90;;;35.45;;
36923;SDS011;22841;50.252;18.688;2024-03-06T12:11:59;55.95;;;27.08;;
36923;SDS011;22841;50.252;18.688;2024-03-06T12:14:25;52.08;;;26.25;;
36923;SDS011;22841;50.252;18.688;2024-03-06T12:16:58;46.88;;;26.08;;
36923;SDS011;22841;50.252;18.688;2024-03-06T12:19:33;46.92;;;24.70;;
36923;SDS011;22841;50.252;18.688;2024-03-06T12:22:04;53.80;;;28.15;;
36923;SDS011;22841;50.252;18.688;2024-03-06T12:24:31;73.72;;;36.25;;
36923;SDS011;22841;50.252;18.688;2024-03-06T12:27:01;65.65;;;31.25;;
36923;SDS011;22841;50.252;18.688;2024-03-06T12:29:32;52.92;;;28.55;;
36923;SDS011;22841;50.252;18.688;2024-03-06T12:32:00;57.25;;;28.90;;
36923;SDS011;22841;50.252;18.688;2024-03-06T12:34:28;58.20;;;29.52;;
36923;SDS011;22841;50.252;18.688;2024-03-06T12:36:55;58.90;;;29.38;;
36923;SDS011;22841;50.252;18.688;2024-03-06T12:39:23;45.90;;;23.00;;
36923;SDS011;22841;50.252;18.688;2024-03-06T12:41:49;40.47;;;21.48;;
36923;SDS011;22841;50.252;18.688;2024-03-06T12:44:16;43.42;;;21.08;;
36923;SDS011;22841;50.252;18.688;2024-03-06T12:46:42;39.22;;;20.92;;
36923;SDS011;22841;50.252;18.688;2024-03-06T12:49:08;42.22;;;21.27;;
36923;SDS011;22841;50.252;18.688;2024-03-06T12:51:34;39.22;;;21.15;;
36923;SDS011;22841;50.252;18.688;2024-03-06T12:54:00;39.80;;;22.67;;
36923;SDS011;22841;50.252;18.688;2024-03-06T12:56:29;38.20;;;22.48;;
36923;SDS011;22841;50.252;18.688;2024-03-06T12:58:55;43.05;;;23.02;;
36923;SDS011;22841;50.252;18.688;2024-03-06T13:01:21;42.45;;;22.73;;
36923;SDS011;22841;50.252;18.688;2024-03-06T13:03:47;45.03;;;22.95;;
36923;SDS011;22841;50.252;18.688;2024-03-06T13:06:14;37.38;;;21.23;;
36923;SDS011;22841;50.252;18.688;2024-03-06T13:08:41;43.90;;;22.60;;
36923;SDS011;22841;50.252;18.688;2024-03-06T13:11:07;42.28;;;22.48;;
36923;SDS011;22841;50.252;18.688;2024-03-06T13:13:35;44.58;;;23.50;;
36923;SDS011;22841;50.252;18.688;2024-03-06T13:16:01;42.35;;;23.50;;
36923;SDS011;22841;50.252;18.688;2024-03-06T13:18:27;48.55;;;23.98;;
36923;SDS011;22841;50.252;18.688;2024-03-06T13:20:53;49.58;;;24.63;;
36923;SDS011;22841;50.252;18.688;2024-03-06T13:23:19;47.33;;;24.45;;
36923;SDS011;22841;50.252;18.688;2024-03-06T13:25:45;49.75;;;25.20;;
36923;SDS011;22841;50.252;18.688;2024-03-06T13:28:12;61.40;;;27.70;;
36923;SDS011;22841;50.252;18.688;2024-03-06T13:30:38;52.78;;;26.30;;
36923;SDS011;22841;50.252;18.688;2024-03-06T13:33:04;49.60;;;24.83;;
36923;SDS011;22841;50.252;18.688;2024-03-06T13:35:31;49.13;;;26.45;;
36923;SDS011;22841;50.252;18.688;2024-03-06T13:37:57;47.58;;;24.52;;
36923;SDS011;22841;50.252;18.688;2024-03-06T13:40:23;49.63;;;25.63;;
36923;SDS011;22841;50.252;18.688;2024-03-06T13:42:51;44.10;;;22.92;;
36923;SDS011;22841;50.252;18.688;2024-03-06T13:45:17;47.35;;;26.00;;
36923;SDS011;22841;50.252;18.688;2024-03-06T13:47:44;47.25;;;25.35;;
36923;SDS011;22841;50.252;18.688;2024-03-06T13:50:14;42.75;;;24.45;;
36923;SDS011;22841;50.252;18.688;2024-03-06T13:52:41;48.50;;;24.35;;
36923;SDS011;22841;50.252;18.688;2024-03-06T13:55:08;54.97;;;26.08;;
36923;SDS011;22841;50.252;18.688;2024-03-06T13:57:35;51.42;;;25.65;;
36923;SDS011;22841;50.252;18.688;2024-03-06T14:00:02;54.10;;;26.80;;
36923;SDS011;22841;50.252;18.688;2024-03-06T14:02:31;57.72;;;28.67;;
36923;SDS011;22841;50.252;18.688;2024-03-06T14:04:57;54.97;;;27.33;;
36923;SDS011;22841;50.252;18.688;2024-03-06T14:07:23;51.95;;;28.13;;
36923;SDS011;22841;50.252;18.688;2024-03-06T14:09:50;52.03;;;29.30;;
36923;SDS011;22841;50.252;18.688;2024-03-06T14:12:16;52.30;;;27.23;;
36923;SDS011;22841;50.252;18.688;2024-03-06T14:14:43;51.72;;;27.65;;
36923;SDS011;22841;50.252;18.688;2024-03-06T14:17:11;56.47;;;30.73;;
36923;SDS011;22841;50.252;18.688;2024-03-06T14:19:38;58.28;;;29.92;;
36923;SDS011;22841;50.252;18.688;2024-03-06T14:22:08;57.13;;;31.58;;
36923;SDS011;22841;50.252;18.688;2024-03-06T14:24:34;60.15;;;30.45;;
36923;SDS011;22841;50.252;18.688;2024-03-06T14:27:01;60.05;;;27.92;;
36923;SDS011;22841;50.252;18.688;2024-03-06T14:29:28;54.83;;;27.85;;
36923;SDS011;22841;50.252;18.688;2024-03-06T14:31:55;60.63;;;31.45;;
36923;SDS011;22841;50.252;18.688;2024-03-06T14:34:21;63.08;;;33.42;;
36923;SDS011;22841;50.252;18.688;2024-03-06T14:36:52;64.07;;;31.27;;
36923;SDS011;22841;50.252;18.688;2024-03-06T14:39:18;59.08;;;31.30;;
36923;SDS011;22841;50.252;18.688;2024-03-06T14:41:47;58.15;;;30.58;;
36923;SDS011;22841;50.252;18.688;2024-03-06T14:44:14;61.50;;;30.88;;
36923;SDS011;22841;50.252;18.688;2024-03-06T14:46:40;53.03;;;27.52;;
36923;SDS011;22841;50.252;18.688;2024-03-06T14:49:07;61.03;;;29.77;;
36923;SDS011;22841;50.252;18.688;2024-03-06T14:51:33;57.67;;;28.92;;
36923;SDS011;22841;50.252;18.688;2024-03-06T14:54:00;57.72;;;28.20;;
36923;SDS011;22841;50.252;18.688;2024-03-06T14:56:26;55.72;;;28.45;;
36923;SDS011;22841;50.252;18.688;2024-03-06T14:58:52;55.53;;;27.45;;
36923;SDS011;22841;50.252;18.688;2024-03-06T15:01:18;60.50;;;28.27;;
36923;SDS011;22841;50.252;18.688;2024-03-06T15:03:45;53.55;;;27.90;;
36923;SDS011;22841;50.252;18.688;2024-03-06T15:06:11;55.42;;;29.17;;
36923;SDS011;22841;50.252;18.688;2024-03-06T15:08:38;61.42;;;29.10;;
36923;SDS011;22841;50.252;18.688;2024-03-06T15:11:04;66.53;;;32.10;;
36923;SDS011;22841;50.252;18.688;2024-03-06T15:13:30;62.83;;;30.13;;
36923;SDS011;22841;50.252;18.688;2024-03-06T15:15:56;66.40;;;32.05;;
36923;SDS011;22841;50.252;18.688;2024-03-06T15:18:22;77.00;;;31.45;;
36923;SDS011;22841;50.252;18.688;2024-03-06T15:20:49;78.85;;;32.97;;
36923;SDS011;22841;50.252;18.688;2024-03-06T15:23:16;68.13;;;32.25;;
36923;SDS011;22841;50.252;18.688;2024-03-06T15:25:43;82.63;;;37.83;;
36923;SDS011;22841;50.252;18.688;2024-03-06T15:28:10;150.20;;;64.40;;
36923;SDS011;22841;50.252;18.688;2024-03-06T15:30:36;284.15;;;94.22;;
36923;SDS011;22841;50.252;18.688;2024-03-06T15:33:03;200.30;;;74.55;;
36923;SDS011;22841;50.252;18.688;2024-03-06T15:35:30;183.52;;;66.40;;
36923;SDS011;22841;50.252;18.688;2024-03-06T15:37:56;222.15;;;89.95;;
36923;SDS011;22841;50.252;18.688;2024-03-06T15:40:22;236.57;;;96.53;;
36923;SDS011;22841;50.252;18.688;2024-03-06T15:42:50;242.25;;;101.43;;
36923;SDS011;22841;50.252;18.688;2024-03-06T15:45:17;188.40;;;86.28;;
36923;SDS011;22841;50.252;18.688;2024-03-06T15:47:43;124.47;;;55.17;;
36923;SDS011;22841;50.252;18.688;2024-03-06T15:50:11;92.00;;;40.80;;
36923;SDS011;22841;50.252;18.688;2024-03-06T15:52:38;110.43;;;47.60;;
36923;SDS011;22841;50.252;18.688;2024-03-06T15:55:07;92.95;;;41.00;;
36923;SDS011;22841;50.252;18.688;2024-03-06T15:57:35;105.95;;;45.03;;
36923;SDS011;22841;50.252;18.688;2024-03-06T16:00:02;100.18;;;43.28;;
36923;SDS011;22841;50.252;18.688;2024-03-06T16:02:39;111.00;;;45.22;;
36923;SDS011;22841;50.252;18.688;2024-03-06T16:05:05;137.63;;;51.72;;
36923;SDS011;22841;50.252;18.688;2024-03-06T16:07:33;121.50;;;47.70;;
36923;SDS011;22841;50.252;18.688;2024-03-06T16:09:59;117.35;;;45.45;;
36923;SDS011;22841;50.252;18.688;2024-03-06T16:12:26;127.20;;;51.38;;
36923;SDS011;22841;50.252;18.688;2024-03-06T16:14:52;133.88;;;52.50;;
36923;SDS011;22841;50.252;18.688;2024-03-06T16:17:18;106.75;;;42.50;;
36923;SDS011;22841;50.252;18.688;2024-03-06T16:19:45;137.68;;;53.33;;
36923;SDS011;22841;50.252;18.688;2024-03-06T16:22:11;122.30;;;47.10;;
36923;SDS011;22841;50.252;18.688;2024-03-06T16:24:37;110.22;;;44.97;;
36923;SDS011;22841;50.252;18.688;2024-03-06T16:27:04;128.80;;;52.15;;
36923;SDS011;22841;50.252;18.688;2024-03-06T16:29:30;120.90;;;50.00;;
36923;SDS011;22841;50.252;18.688;2024-03-06T16:31:56;135.55;;;55.47;;
36923;SDS011;22841;50.252;18.688;2024-03-06T16:34:24;131.52;;;54.75;;
36923;SDS011;22841;50.252;18.688;2024-03-06T16:36:50;126.70;;;52.15;;
36923;SDS011;22841;50.252;18.688;2024-03-06T16:39:17;115.15;;;49.67;;
36923;SDS011;22841;50.252;18.688;2024-03-06T16:41:43;108.93;;;44.95;;
36923;SDS011;22841;50.252;18.688;2024-03-06T16:44:09;115.50;;;47.28;;
36923;SDS011;22841;50.252;18.688;2024-03-06T16:46:38;119.15;;;50.80;;
36923;SDS011;22841;50.252;18.688;2024-03-06T16:49:05;156.75;;;60.53;;
36923;SDS011;22841;50.252;18.688;2024-03-06T16:51:33;149.55;;;59.15;;
36923;SDS011;22841;50.252;18.688;2024-03-06T16:53:59;103.57;;;45.22;;
36923;SDS011;22841;50.252;18.688;2024-03-06T16:56:27;110.65;;;47.17;;
36923;SDS011;22841;50.252;18.688;2024-03-06T16:58:54;114.10;;;49.75;;
36923;SDS011;22841;50.252;18.688;2024-03-06T17:01:20;121.63;;;53.30;;
36923;SDS011;22841;50.252;18.688;2024-03-06T17:03:47;139.98;;;57.45;;
36923;SDS011;22841;50.252;18.688;2024-03-06T17:06:14;110.65;;;45.60;;
36923;SDS011;22841;50.252;18.688;2024-03-06T17:08:40;119.88;;;50.88;;
36923;SDS011;22841;50.252;18.688;2024-03-06T17:11:10;136.52;;;54.03;;
36923;SDS011;22841;50.252;18.688;2024-03-06T17:13:37;115.07;;;50.42;;
36923;SDS011;22841;50.252;18.688;2024-03-06T17:16:05;113.85;;;49.50;;
36923;SDS011;22841;50.252;18.688;2024-03-06T17:18:32;116.63;;;48.22;;
36923;SDS011;22841;50.252;18.688;2024-03-06T17:20:59;114.97;;;48.83;;
36923;SDS011;22841;50.252;18.688;2024-03-06T17:23:25;105.45;;;46.75;;
36923;SDS011;22841;50.252;18.688;2024-03-06T17:25:51;104.30;;;42.35;;
36923;SDS011;22841;50.252;18.688;2024-03-06T17:28:17;114.90;;;47.78;;
36923;SDS011;22841;50.252;18.688;2024-03-06T17:30:44;97.82;;;42.67;;
36923;SDS011;22841;50.252;18.688;2024-03-06T17:33:11;105.28;;;44.55;;
36923;SDS011;22841;50.252;18.688;2024-03-06T17:35:44;115.05;;;50.03;;
36923;SDS011;22841;50.252;18.688;2024-03-06T17:38:15;131.05;;;54.97;;
36923;SDS011;22841;50.252;18.688;2024-03-06T17:40:44;116.43;;;46.35;;
36923;SDS011;22841;50.252;18.688;2024-03-06T17:43:11;108.45;;;48.92;;
36923;SDS011;22841;50.252;18.688;2024-03-06T17:45:40;117.00;;;50.55;;
36923;SDS011;22841;50.252;18.688;2024-03-06T17:48:07;121.35;;;51.08;;
36923;SDS011;22841;50.252;18.688;2024-03-06T17:50:33;115.00;;;52.63;;
36923;SDS011;22841;50.252;18.688;2024-03-06T17:53:02;143.75;;;59.78;;
36923;SDS011;22841;50.252;18.688;2024-03-06T17:55:30;138.95;;;53.25;;
36923;SDS011;22841;50.252;18.688;2024-03-06T17:57:57;145.57;;;63.75;;
36923;SDS011;22841;50.252;18.688;2024-03-06T18:00:24;124.80;;;55.65;;
36923;SDS011;22841;50.252;18.688;2024-03-06T18:02:51;123.25;;;55.42;;
36923;SDS011;22841;50.252;18.688;2024-03-06T18:05:21;118.63;;;53.85;;
36923;SDS011;22841;50.252;18.688;2024-03-06T18:07:48;117.80;;;52.25;;
36923;SDS011;22841;50.252;18.688;2024-03-06T18:10:14;115.38;;;50.35;;
36923;SDS011;22841;50.252;18.688;2024-03-06T18:12:41;120.07;;;48.05;;
36923;SDS011;22841;50.252;18.688;2024-03-06T18:15:07;117.72;;;49.58;;
36923;SDS011;22841;50.252;18.688;2024-03-06T18:17:33;110.45;;;47.42;;
36923;SDS011;22841;50.252;18.688;2024-03-06T18:20:00;111.18;;;44.83;;
36923;SDS011;22841;50.252;18.688;2024-03-06T18:22:26;115.60;;;44.92;;
36923;SDS011;22841;50.252;18.688;2024-03-06T18:24:52;127.63;;;49.85;;
36923;SDS011;22841;50.252;18.688;2024-03-06T18:27:19;112.25;;;43.20;;
36923;SDS011;22841;50.252;18.688;2024-03-06T18:29:45;130.88;;;48.10;;
36923;SDS011;22841;50.252;18.688;2024-03-06T18:32:11;133.32;;;50.85;;
36923;SDS011;22841;50.252;18.688;2024-03-06T18:34:37;136.55;;;53.90;;
36923;SDS011;22841;50.252;18.688;2024-03-06T18:37:03;147.50;;;57.13;;
36923;SDS011;22841;50.252;18.688;2024-03-06T18:39:30;125.50;;;53.13;;
36923;SDS011;22841;50.252;18.688;2024-03-06T18:41:56;109.93;;;47.42;;
36923;SDS011;22841;50.252;18.688;2024-03-06T18:44:24;91.35;;;42.13;;
36923;SDS011;22841;50.252;18.688;2024-03-06T18:46:50;98.28;;;42.90;;
36923;SDS011;22841;50.252;18.688;2024-03-06T18:49:16;108.10;;;45.42;;
36923;SDS011;22841;50.252;18.688;2024-03-06T18:51:48;116.60;;;45.30;;
36923;SDS011;22841;50.252;18.688;2024-03-06T18:54:14;111.25;;;45.90;;
36923;SDS011;22841;50.252;18.688;2024-03-06T18:56:41;101.35;;;43.95;;
36923;SDS011;22841;50.252;18.688;2024-03-06T18:59:09;93.70;;;41.10;;
36923;SDS011;22841;50.252;18.688;2024-03-06T19:01:40;96.72;;;42.75;;
36923;SDS011;22841;50.252;18.688;2024-03-06T19:04:06;129.07;;;43.13;;
36923;SDS011;22841;50.252;18.688;2024-03-06T19:06:32;127.10;;;43.35;;
36923;SDS011;22841;50.252;18.688;2024-03-06T19:08:58;116.63;;;46.33;;
36923;SDS011;22841;50.252;18.688;2024-03-06T19:11:24;113.60;;;44.28;;
36923;SDS011;22841;50.252;18.688;2024-03-06T19:13:50;102.47;;;42.67;;
36923;SDS011;22841;50.252;18.688;2024-03-06T19:16:22;99.93;;;42.42;;
36923;SDS011;22841;50.252;18.688;2024-03-06T19:18:49;96.25;;;42.15;;
36923;SDS011;22841;50.252;18.688;2024-03-06T19:21:15;98.28;;;44.67;;
36923;SDS011;22841;50.252;18.688;2024-03-06T19:23:41;112.88;;;48.80;;
36923;SDS011;22841;50.252;18.688;2024-03-06T19:26:08;95.05;;;44.65;;
36923;SDS011;22841;50.252;18.688;2024-03-06T19:28:34;94.65;;;42.90;;
36923;SDS011;22841;50.252;18.688;2024-03-06T19:31:01;70.78;;;32.47;;
36923;SDS011;22841;50.252;18.688;2024-03-06T19:33:28;69.93;;;32.83;;
36923;SDS011;22841;50.252;18.688;2024-03-06T19:35:55;68.63;;;31.75;;
36923;SDS011;22841;50.252;18.688;2024-03-06T19:38:21;75.43;;;31.88;;
36923;SDS011;22841;50.252;18.688;2024-03-06T19:40:47;66.80;;;31.23;;
36923;SDS011;22841;50.252;18.688;2024-03-06T19:43:13;71.43;;;36.10;;
36923;SDS011;22841;50.252;18.688;2024-03-06T19:45:39;85.72;;;37.05;;
36923;SDS011;22841;50.252;18.688;2024-03-06T19:48:05;76.25;;;38.30;;